Time;durP1;ratioP1;P1;durP2;ratioP2;P2;SDS_P1;SDS_P2;PMS_P1;PMS_P2;Temp;Humidity;BMP_temperature;BMP_pressure;BME280_temperature;BME280_humidity;BME280_pressure;Samples;Min_cycle;Max_cycle;Signal;HPM_P1;HPM_P2
2021/12/23 00:04:21;;;;;;;258.37;114.40;;;-4.70;99.90;;;;;;10261390;28;20031;-84
2021/12/23 00:09:28;;;;;;;250.07;112.80;;;-4.70;99.90;;;;;;10244855;28;20134;-84
2021/12/23 00:14:31;;;;;;;238.50;107.00;;;-4.70;99.90;;;;;;10230257;28;20043;-83
2021/12/23 00:24:33;;;;;;;222.00;97.03;;;-4.70;99.90;;;;;;10258957;28;20051;-84
2021/12/23 00:29:35;;;;;;;228.50;100.43;;;-4.80;99.90;;;;;;10255663;28;20042;-86
2021/12/23 00:34:37;;;;;;;225.67;102.17;;;-4.80;99.90;;;;;;10261567;28;20037;-85
2021/12/23 00:39:37;;;;;;;232.07;99.10;;;-4.80;99.90;;;;;;10261260;28;20105;-84
2021/12/23 00:44:47;;;;;;;226.67;102.53;;;-4.90;99.90;;;;;;10265345;28;20069;-84
2021/12/23 00:49:48;;;;;;;230.47;101.63;;;-5.00;99.90;;;;;;10237336;28;20074;-84
2021/12/23 00:54:48;;;;;;;217.07;100.53;;;-5.00;99.90;;;;;;10251847;28;20058;-84
2021/12/23 00:59:49;;;;;;;221.33;97.23;;;-5.10;99.90;;;;;;10252680;28;20125;-86
2021/12/23 01:04:49;;;;;;;213.67;93.93;;;-5.30;99.90;;;;;;10272749;28;20050;-84
2021/12/23 07:43:21;;;;;;;554.30;283.10;;;-5.90;99.90;;;;;;10189483;29;20043;-86
2021/12/23 07:48:21;;;;;;;503.73;250.97;;;-5.70;99.90;;;;;;10168243;29;20040;-86
2021/12/23 07:53:22;;;;;;;339.23;164.33;;;-5.50;99.90;;;;;;10151255;29;20067;-84
2021/12/23 07:58:23;;;;;;;256.90;126.77;;;-5.30;99.90;;;;;;10151203;29;20039;-87
2021/12/23 08:03:24;;;;;;;303.43;141.27;;;-5.20;99.90;;;;;;10167935;29;20055;-86
2021/12/23 08:08:24;;;;;;;230.17;104.30;;;-5.00;99.90;;;;;;10167362;29;20091;-85
2021/12/23 08:13:25;;;;;;;404.90;175.70;;;-4.90;99.90;;;;;;10164222;29;20048;-85
2021/12/23 08:18:26;;;;;;;488.03;219.33;;;-4.80;99.90;;;;;;10189427;29;20032;-88
2021/12/23 08:23:27;;;;;;;449.63;202.90;;;-4.70;99.90;;;;;;10189622;29;20638;-87
2021/12/23 08:28:29;;;;;;;745.67;353.83;;;-4.60;99.90;;;;;;10166566;29;20096;-86
2021/12/23 08:33:29;;;;;;;397.93;189.60;;;-4.40;99.90;;;;;;10148662;29;20036;-89
2021/12/23 08:38:30;;;;;;;230.33;119.37;;;-4.30;99.90;;;;;;10168193;29;20032;-86
2021/12/23 08:43:30;;;;;;;301.83;167.57;;;-4.20;99.90;;;;;;10153465;29;20051;-87
2021/12/23 08:48:31;;;;;;;278.70;144.33;;;-4.00;99.90;;;;;;10205058;29;20035;-86
2021/12/23 08:53:32;;;;;;;234.93;105.73;;;-3.90;99.90;;;;;;10207306;29;20036;-86
2021/12/23 08:58:32;;;;;;;168.33;87.37;;;-3.80;99.90;;;;;;10211399;29;20032;-86
2021/12/23 09:03:34;;;;;;;163.03;74.60;;;-3.70;99.90;;;;;;10211971;29;20027;-85
2021/12/23 09:08:35;;;;;;;164.70;83.63;;;-3.50;99.90;;;;;;10195293;29;20136;-85
2021/12/23 09:13:35;;;;;;;231.33;102.40;;;-3.40;99.90;;;;;;10213328;29;20447;-87
2021/12/23 09:18:36;;;;;;;321.97;128.97;;;-3.20;99.90;;;;;;10213005;29;20035;-89
2021/12/23 09:23:37;;;;;;;191.17;96.03;;;-3.10;99.90;;;;;;10209362;28;20027;-86
2021/12/23 09:29:02;;;;;;;188.30;80.83;;;-3.00;99.90;;;;;;10216677;29;20051;-87
2021/12/23 09:34:03;;;;;;;143.27;67.40;;;-2.80;99.90;;;;;;10210139;29;20493;-87
2021/12/23 09:39:06;;;;;;;134.67;65.43;;;-2.70;99.90;;;;;;10210642;29;20140;-88
2021/12/23 09:44:09;;;;;;;105.53;49.57;;;-2.60;99.90;;;;;;10194429;29;20055;-88
2021/12/23 09:49:10;;;;;;;131.50;57.57;;;-2.50;99.90;;;;;;10194198;29;20040;-87
2021/12/23 09:54:11;;;;;;;111.70;51.83;;;-2.40;99.90;;;;;;10193448;29;20050;-84
2021/12/23 09:59:13;;;;;;;106.20;49.47;;;-2.40;99.90;;;;;;10209371;29;20042;-87
2021/12/23 10:04:14;;;;;;;114.70;53.73;;;-2.30;99.90;;;;;;10210799;29;20395;-87
2021/12/23 10:09:28;;;;;;;94.87;43.13;;;-2.30;99.90;;;;;;10209857;29;20044;-86
2021/12/23 10:30:40;;;;;;;90.13;38.83;;;-1.70;99.90;;;;;;10249601;29;20138;-86
2021/12/23 10:41:13;;;;;;;;;;;-1.50;99.90;;;;;;10249500;29;20044;-86
2021/12/23 10:46:25;;;;;;;;;;;-1.50;99.90;;;;;;10248159;29;20004;-86
2021/12/23 10:51:26;;;;;;;92.90;42.97;;;-1.50;99.90;;;;;;10248966;29;19914;-86
2021/12/23 11:02:13;;;;;;;167.77;75.97;;;-1.50;99.90;;;;;;10209285;29;20040;-85
2021/12/23 11:07:22;;;;;;;144.93;65.87;;;-1.50;99.90;;;;;;10209208;29;20028;-89
2021/12/23 11:29:40;;;;;;;166.50;73.27;;;-1.30;99.90;;;;;;10242719;29;20051;-86
2021/12/23 11:40:08;;;;;;;153.10;72.53;;;-1.20;99.90;;;;;;10211771;29;20036;-87
2021/12/23 11:45:09;;;;;;;118.27;53.97;;;-1.20;99.90;;;;;;10199504;29;20127;-86
2021/12/23 11:50:18;;;;;;;177.97;71.70;;;-1.20;99.90;;;;;;10213979;29;20368;-86
2021/12/23 11:55:19;;;;;;;202.97;82.00;;;-1.30;99.90;;;;;;10208167;29;20645;-87
2021/12/23 12:00:32;;;;;;;129.70;64.30;;;-1.30;99.90;;;;;;10204175;29;20031;-86
2021/12/23 12:05:33;;;;;;;121.93;56.40;;;-1.40;99.90;;;;;;10203481;29;20043;-87
2021/12/23 12:10:35;;;;;;;216.47;101.17;;;-1.40;99.90;;;;;;10207021;29;20490;-86
2021/12/23 12:15:39;;;;;;;175.63;84.23;;;-1.40;99.90;;;;;;10203130;29;20075;-86
2021/12/23 12:20:55;;;;;;;181.57;85.00;;;-1.40;99.90;;;;;;10205320;29;20444;-89
2021/12/23 12:26:01;;;;;;;161.32;74.95;;;-1.40;99.90;;;;;;10188948;29;20035;-85
2021/12/23 12:31:14;;;;;;;134.17;63.53;;;-1.40;99.90;;;;;;10218828;28;20422;-85
2021/12/23 12:36:17;;;;;;;141.83;73.30;;;-1.30;99.90;;;;;;10222639;29;20046;-86
2021/12/23 12:41:23;;;;;;;134.70;70.30;;;-1.40;99.90;;;;;;10213926;29;20055;-86
2021/12/23 12:46:37;;;;;;;147.87;66.77;;;-1.40;99.90;;;;;;10212559;29;20048;-86
2021/12/23 12:51:41;;;;;;;125.00;66.47;;;-1.30;99.90;;;;;;10211659;29;20384;-89
2021/12/23 12:56:55;;;;;;;128.50;60.63;;;-1.40;99.90;;;;;;10210339;29;20023;-86
2021/12/23 13:01:57;;;;;;;128.87;63.53;;;-1.40;99.90;;;;;;10192500;29;20130;-85
2021/12/23 13:07:24;;;;;;;130.00;59.30;;;-1.30;99.90;;;;;;10211624;29;20028;-86
2021/12/23 13:12:48;;;;;;;136.18;69.00;;;-1.30;99.90;;;;;;10211972;29;20483;-87
2021/12/23 13:17:53;;;;;;;118.97;56.13;;;-1.30;99.90;;;;;;10213001;29;20024;-85
2021/12/23 13:23:00;;;;;;;138.93;70.10;;;-1.30;99.90;;;;;;10195312;29;20038;-86
2021/12/23 13:28:05;;;;;;;460.57;212.53;;;-1.20;99.90;;;;;;10219493;29;20172;-86
2021/12/23 13:33:08;;;;;;;413.77;206.40;;;-1.30;99.90;;;;;;10250326;29;20035;-86
2021/12/23 13:38:10;;;;;;;155.50;84.13;;;-1.30;99.90;;;;;;10237511;29;20042;-86
2021/12/23 13:43:29;;;;;;;192.73;83.97;;;-1.30;99.90;;;;;;10199456;29;20035;-93
2021/12/23 13:48:58;;;;;;;318.30;124.07;;;-1.30;99.90;;;;;;10227439;29;20040;-90
2021/12/23 13:54:49;;;;;;;621.53;252.67;;;-1.30;99.90;;;;;;10177028;29;20031;-87
2021/12/23 13:59:52;;;;;;;497.80;208.00;;;-1.30;99.90;;;;;;10192567;29;20123;-84
2021/12/23 14:05:01;;;;;;;309.97;131.23;;;-1.40;99.90;;;;;;10213783;29;20044;-85
2021/12/23 14:10:12;;;;;;;284.67;116.10;;;-1.40;99.90;;;;;;10205443;29;20048;-87
2021/12/23 14:15:44;;;;;;;260.00;105.77;;;-1.40;99.90;;;;;;10192847;29;20380;-80
2021/12/23 14:26:10;;;;;;;195.37;89.70;;;-1.50;99.90;;;;;;10204750;29;20043;-83
2021/12/23 14:31:22;;;;;;;211.57;90.03;;;-1.50;99.90;;;;;;10204146;29;20044;-84
2021/12/23 14:36:30;;;;;;;154.40;68.40;;;-1.50;99.90;;;;;;10209016;29;20122;-83
2021/12/23 14:41:48;;;;;;;127.90;58.20;;;-1.60;99.90;;;;;;10206085;29;20111;-83
2021/12/23 14:47:04;;;;;;;165.13;66.57;;;-1.60;99.90;;;;;;10191707;29;20048;-83
2021/12/23 14:52:25;;;;;;;117.13;57.08;;;-1.60;99.90;;;;;;10185633;29;20087;-83
2021/12/23 14:57:52;;;;;;;147.67;61.77;;;-1.60;99.90;;;;;;10190571;29;20122;-85
2021/12/23 15:03:29;;;;;;;157.80;70.53;;;-1.70;99.90;;;;;;10187401;29;20040;-84
2021/12/23 15:08:31;;;;;;;124.65;57.35;;;-1.70;99.90;;;;;;10101835;29;20075;-83
2021/12/23 15:13:38;;;;;;;157.30;70.43;;;-1.70;99.90;;;;;;10206369;29;20577;-87
2021/12/23 15:23:48;;;;;;;121.70;50.80;;;-1.70;99.90;;;;;;10168214;29;20047;-86
2021/12/23 15:29:15;;;;;;;153.47;68.90;;;-1.70;99.90;;;;;;10168070;29;20539;-84
2021/12/23 15:34:16;;;;;;;148.83;63.63;;;-1.70;99.90;;;;;;10182753;29;20052;-84
2021/12/23 15:39:20;;;;;;;234.50;108.30;;;-1.70;99.90;;;;;;10169300;29;20523;-89
2021/12/23 15:44:23;;;;;;;179.57;82.97;;;-1.80;99.90;;;;;;10130606;29;1208604;-85
2021/12/23 15:49:26;;;;;;;176.23;78.20;;;-1.80;99.90;;;;;;10220966;29;20099;-85
2021/12/23 15:54:26;;;;;;;218.90;94.20;;;-1.80;99.90;;;;;;10234441;28;20035;-84
2021/12/23 15:59:27;;;;;;;193.20;91.37;;;-1.80;99.90;;;;;;10217365;28;20028;-83
2021/12/23 16:04:32;;;;;;;166.60;75.00;;;-1.80;99.90;;;;;;10223558;29;20120;-87
2021/12/23 16:09:33;;;;;;;147.97;70.87;;;-1.80;99.90;;;;;;10234744;29;20126;-83
2021/12/23 16:14:34;;;;;;;140.80;62.33;;;-1.70;99.90;;;;;;10223668;29;20391;-84
2021/12/23 16:31:30;;;;;;;191.63;84.25;;;-1.70;99.90;;;;;;10231614;28;20087;-88
2021/12/23 16:36:31;;;;;;;685.90;265.27;;;-1.60;99.90;;;;;;10249481;28;20015;-86
2021/12/23 16:41:31;;;;;;;193.70;95.73;;;-1.60;99.90;;;;;;10236087;29;20043;-85
2021/12/23 16:46:32;;;;;;;378.23;156.30;;;-1.60;99.90;;;;;;10225234;28;20135;-84
2021/12/23 16:51:33;;;;;;;524.17;225.23;;;-1.60;99.90;;;;;;10218617;29;20090;-89
2021/12/23 17:01:53;;;;;;;521.63;210.30;;;-1.60;99.90;;;;;;10249983;28;20039;-89
2021/12/23 17:06:54;;;;;;;219.57;83.63;;;-1.50;99.90;;;;;;10260829;28;20015;-88
2021/12/23 17:11:56;;;;;;;249.90;91.40;;;-1.50;99.90;;;;;;10223323;28;20043;-84
2021/12/23 17:16:57;;;;;;;207.00;80.33;;;-1.40;99.90;;;;;;10242894;28;20039;-88
2021/12/23 17:21:58;;;;;;;217.17;83.90;;;-1.40;99.90;;;;;;10247086;28;20027;-84
2021/12/23 17:27:03;;;;;;;146.57;60.03;;;-1.30;99.90;;;;;;10238503;28;20027;-84
2021/12/23 17:32:04;;;;;;;179.23;65.60;;;-1.30;99.90;;;;;;10239245;28;20062;-81
2021/12/23 17:37:05;;;;;;;100.00;42.10;;;-1.20;99.90;;;;;;10235597;29;20953;-82
2021/12/23 17:42:07;;;;;;;97.63;38.40;;;-1.20;99.90;;;;;;10206452;28;20034;-85
2021/12/23 17:47:08;;;;;;;80.73;32.23;;;-1.20;99.90;;;;;;10237001;28;20059;-82
2021/12/23 17:52:09;;;;;;;75.77;30.70;;;-1.10;99.90;;;;;;10242443;28;20079;-83
2021/12/23 17:57:10;;;;;;;85.60;31.27;;;-1.10;99.90;;;;;;10237069;28;20110;-82
2021/12/23 18:02:11;;;;;;;52.20;23.70;;;-1.00;99.90;;;;;;10240804;28;20042;-82
2021/12/23 18:07:12;;;;;;;59.80;26.57;;;-0.90;99.90;;;;;;10239345;28;20082;-82
2021/12/23 18:12:12;;;;;;;80.27;31.03;;;-0.80;99.90;;;;;;10243758;28;20069;-81
2021/12/23 18:17:13;;;;;;;53.53;25.70;;;-0.80;99.90;;;;;;10243909;28;20031;-81
2021/12/23 18:22:14;;;;;;;48.70;24.60;;;-0.80;99.90;;;;;;10233943;28;20149;-83
2021/12/23 18:27:16;;;;;;;69.77;27.27;;;-0.70;99.90;;;;;;10233825;28;20671;-83
2021/12/23 18:32:16;;;;;;;43.00;21.23;;;-0.70;99.90;;;;;;10235825;28;20042;-84
2021/12/23 18:37:17;;;;;;;46.10;21.03;;;-0.60;99.90;;;;;;10223443;29;20038;-83
2021/12/23 18:42:23;;;;;;;46.40;22.43;;;-0.60;99.90;;;;;;10237577;28;20391;-84
2021/12/23 18:47:24;;;;;;;43.23;18.30;;;-0.60;99.90;;;;;;10239938;28;20051;-83
2021/12/23 18:52:25;;;;;;;40.17;17.37;;;-0.50;99.90;;;;;;10234376;28;20031;-83
2021/12/23 18:57:26;;;;;;;55.13;24.37;;;-0.50;99.90;;;;;;10241644;28;20035;-84
2021/12/23 19:07:35;;;;;;;49.80;21.53;;;-0.50;99.90;;;;;;10241003;28;20569;-84
2021/12/23 19:12:36;;;;;;;67.33;27.37;;;-0.60;99.90;;;;;;10243857;28;20398;-82
2021/12/23 19:17:37;;;;;;;50.17;21.80;;;-0.50;99.90;;;;;;10227170;28;20513;-81
2021/12/23 19:22:38;;;;;;;57.30;23.90;;;-0.60;99.90;;;;;;10221776;28;20030;-85
2021/12/23 19:27:39;;;;;;;42.30;19.63;;;-0.60;99.90;;;;;;10221250;28;20050;-84
2021/12/23 19:32:40;;;;;;;61.27;25.63;;;-0.60;99.90;;;;;;10211767;28;20058;-84
2021/12/23 19:37:41;;;;;;;51.23;23.03;;;-0.70;99.90;;;;;;10235257;28;20022;-86
2021/12/23 19:42:43;;;;;;;99.70;38.03;;;-0.70;99.90;;;;;;10235766;28;20416;-86
2021/12/23 19:47:43;;;;;;;47.00;21.60;;;-0.70;99.90;;;;;;10244207;28;20054;-85
2021/12/23 19:52:44;;;;;;;52.77;22.00;;;-0.70;99.90;;;;;;10241510;28;20046;-83
2021/12/23 19:57:46;;;;;;;99.63;36.93;;;-0.80;99.90;;;;;;10249460;28;20078;-81
2021/12/23 20:02:47;;;;;;;51.37;21.37;;;-0.70;99.90;;;;;;10247009;28;20391;-83
2021/12/23 20:07:49;;;;;;;44.73;19.77;;;-0.80;99.90;;;;;;10243325;28;20548;-85
2021/12/23 20:12:51;;;;;;;46.20;21.33;;;-0.80;99.90;;;;;;10237371;28;20035;-85
2021/12/23 20:17:52;;;;;;;61.50;24.87;;;-0.80;99.90;;;;;;10253193;28;20027;-88
2021/12/23 20:22:53;;;;;;;53.10;22.00;;;-0.80;99.90;;;;;;10246459;28;20035;-85
2021/12/23 20:27:55;;;;;;;59.80;23.40;;;-0.80;99.90;;;;;;10226793;28;20032;-83
2021/12/23 20:32:57;;;;;;;81.80;32.03;;;-0.80;99.90;;;;;;10245895;28;20038;-89
2021/12/23 20:37:57;;;;;;;55.23;23.63;;;-0.80;99.90;;;;;;10210461;28;20028;-88
2021/12/23 20:42:59;;;;;;;63.77;25.17;;;-0.80;99.90;;;;;;10216286;28;20031;-88
2021/12/23 20:47:59;;;;;;;58.57;25.40;;;-0.70;99.90;;;;;;10226432;28;20102;-88
2021/12/23 20:53:03;;;;;;;61.90;25.93;;;-0.70;99.90;;;;;;10236244;28;20034;-86
2021/12/23 20:58:06;;;;;;;54.17;21.97;;;-0.70;99.90;;;;;;10247868;28;20402;-86
2021/12/23 21:03:08;;;;;;;63.57;27.93;;;-0.70;99.90;;;;;;10246824;28;20031;-87
2021/12/23 21:08:09;;;;;;;55.07;23.70;;;-0.70;99.90;;;;;;10234144;28;20035;-88
2021/12/23 21:13:11;;;;;;;51.47;22.37;;;-0.70;99.90;;;;;;10243588;28;20035;-85
2021/12/23 21:18:13;;;;;;;58.30;26.47;;;-0.80;99.90;;;;;;10236724;28;20035;-86
2021/12/23 21:23:15;;;;;;;49.97;23.63;;;-0.80;99.90;;;;;;10249292;29;20122;-83
2021/12/23 21:28:16;;;;;;;45.33;21.97;;;-0.80;99.90;;;;;;10243800;28;20359;-84
2021/12/23 21:33:18;;;;;;;49.63;23.50;;;-0.80;99.90;;;;;;10215504;28;20040;-87
2021/12/23 21:38:20;;;;;;;59.20;25.40;;;-0.80;99.90;;;;;;10205349;28;20108;-87
2021/12/23 21:43:22;;;;;;;53.33;23.30;;;-0.80;99.90;;;;;;10225079;28;20035;-84
2021/12/23 21:48:23;;;;;;;52.53;23.83;;;-0.80;99.90;;;;;;10209666;28;20051;-86
2021/12/23 21:53:24;;;;;;;50.20;23.00;;;-0.80;99.90;;;;;;10218111;29;20040;-88
2021/12/23 21:58:25;;;;;;;51.43;23.87;;;-0.70;99.90;;;;;;10234566;28;20111;-86
2021/12/23 22:03:26;;;;;;;56.57;24.93;;;-0.70;99.90;;;;;;10237784;28;20070;-86
2021/12/23 22:08:26;;;;;;;48.47;20.50;;;-0.70;99.90;;;;;;10234501;28;20567;-86
2021/12/23 22:13:27;;;;;;;51.47;21.57;;;-0.70;99.90;;;;;;10238155;28;20042;-86
2021/12/23 22:18:29;;;;;;;42.07;20.93;;;-0.70;99.90;;;;;;10230800;28;20023;-89
2021/12/23 22:23:30;;;;;;;48.57;22.30;;;-0.70;99.90;;;;;;10225121;29;20023;-86
2021/12/23 22:28:31;;;;;;;45.03;19.77;;;-0.70;99.90;;;;;;10237814;28;20487;-86
2021/12/23 22:33:32;;;;;;;43.53;19.83;;;-0.70;99.90;;;;;;10238976;28;20091;-86
2021/12/23 22:38:32;;;;;;;44.67;20.47;;;-0.70;99.90;;;;;;10239464;28;20063;-86
2021/12/23 22:43:33;;;;;;;47.67;21.40;;;-0.70;99.90;;;;;;10254489;28;20073;-87
2021/12/23 22:48:34;;;;;;;50.93;23.77;;;-0.70;99.90;;;;;;10246344;28;20067;-87
2021/12/23 22:53:35;;;;;;;57.40;23.20;;;-0.70;99.90;;;;;;10230442;28;20115;-88
2021/12/23 22:58:35;;;;;;;55.03;23.20;;;-0.80;99.90;;;;;;10218308;29;20034;-89
2021/12/23 23:03:38;;;;;;;55.07;26.53;;;-0.70;99.90;;;;;;10226795;28;20038;-88
2021/12/23 23:08:39;;;;;;;53.27;22.37;;;-0.80;99.90;;;;;;10221124;28;20043;-87
2021/12/23 23:13:48;;;;;;;50.60;23.03;;;-0.70;99.90;;;;;;10242285;28;20035;-90
2021/12/23 23:18:56;;;;;;;50.40;23.80;;;-0.70;99.90;;;;;;10231461;28;20043;-87
2021/12/23 23:24:14;;;;;;;46.33;22.40;;;-0.60;99.90;;;;;;10229994;28;20046;-88
2021/12/23 23:40:33;;;;;;;56.63;25.80;;;-0.60;99.90;;;;;;10246901;28;20046;-89
2021/12/23 23:45:43;;;;;;;57.37;27.63;;;-0.60;99.90;;;;;;10245879;28;20039;-87
2021/12/23 23:50:54;;;;;;;49.67;23.50;;;-0.60;99.90;;;;;;10230387;29;20395;-87
2021/12/23 23:56:05;;;;;;;54.30;25.50;;;-0.60;99.90;;;;;;10233789;28;20050;-86
